createdAt,value
2022-12-28T00:01:50.393Z,101292.63
2022-12-28T00:04:18.149Z,101290.53
2022-12-28T00:06:47.388Z,101284.41
2022-12-28T00:09:16.283Z,101276.16
2022-12-28T00:11:43.903Z,101272.53
2022-12-28T00:14:11.514Z,101269.91
2022-12-28T00:16:40.683Z,101271.88
2022-12-28T00:19:12.278Z,101257.81
2022-12-28T00:21:40.180Z,101265.03
2022-12-28T00:24:08.925Z,101257.81
2022-12-28T00:26:37.926Z,101254.34
2022-12-28T00:29:05.950Z,101240.28
2022-12-28T00:31:34.504Z,101243.75
2022-12-28T00:34:02.421Z,101230.16
2022-12-28T00:37:12.224Z,101217.91
2022-12-28T00:39:17.601Z,101210.94
2022-12-28T00:41:46.990Z,101212.75
2022-12-28T00:44:14.645Z,101210.28
2022-12-28T00:46:42.536Z,101201.50
2022-12-28T00:49:10.125Z,101189.44
2022-12-28T00:51:37.674Z,101192.22
2022-12-28T00:54:05.458Z,101191.25
2022-12-28T00:56:33.047Z,101181.63
2022-12-28T00:59:01.963Z,101186.63
2022-12-28T01:01:30.346Z,101168.41
2022-12-28T01:03:58.868Z,101176.03
2022-12-28T01:06:27.139Z,101159.50
2022-12-28T01:08:55.565Z,101164.13
2022-12-28T01:11:25.171Z,101151.75
2022-12-28T01:13:54.825Z,101158.66
2022-12-28T01:16:26.024Z,101148.09
2022-12-28T01:18:55.023Z,101146.28
2022-12-28T01:21:25.450Z,101135.88
2022-12-28T01:23:56.164Z,101146.47
2022-12-28T01:26:24.669Z,101130.44
2022-12-28T01:28:52.629Z,101127.78
2022-12-28T01:31:22.093Z,101118.50
2022-12-28T01:33:51.471Z,101128.63
2022-12-28T01:36:22.107Z,101117.22
2022-12-28T01:38:53.559Z,101110.94
2022-12-28T01:41:21.684Z,101105.97
2022-12-28T01:44:27.823Z,101098.69
2022-12-28T01:47:01.783Z,101097.19
2022-12-28T01:49:33.217Z,101082.16
2022-12-28T01:52:05.934Z,101076.72
2022-12-28T01:54:38.514Z,101071.72
2022-12-28T01:57:06.201Z,101069.91
2022-12-28T01:59:38.553Z,101063.97
2022-12-28T02:02:08.087Z,101062.16
2022-12-28T02:04:36.082Z,101052.72
2022-12-28T02:07:04.065Z,101051.38
2022-12-28T02:09:38.133Z,101044.94
2022-12-28T02:12:07.323Z,101040.63
2022-12-28T02:14:35.556Z,101047.88
2022-12-28T02:17:03.234Z,101029.84
2022-12-28T02:19:39.058Z,101029.56
2022-12-28T02:22:29.090Z,101027.03
2022-12-28T02:25:14.390Z,101022.06
2022-12-28T02:27:55.775Z,101018.59
2022-12-28T02:30:24.914Z,101004.03
2022-12-28T02:33:00.718Z,101009.16
2022-12-28T02:35:35.124Z,101002.38
2022-12-28T02:38:08.613Z,100982.19
2022-12-28T02:40:42.304Z,100979.56
2022-12-28T02:43:10.083Z,100957.09
2022-12-28T02:45:59.028Z,100958.91
2022-12-28T02:48:45.185Z,100941.53
2022-12-28T02:51:32.391Z,100946.00
2022-12-28T02:54:39.977Z,100939.22
2022-12-28T02:57:18.765Z,100937.22
2022-12-28T03:00:00.468Z,100920.53
2022-12-28T03:02:42.999Z,100921.38
2022-12-28T03:05:15.913Z,100918.06
2022-12-28T03:08:10.976Z,100910.94
2022-12-28T03:10:47.591Z,100904.47
2022-12-28T03:13:37.157Z,100890.44
2022-12-28T03:16:09.209Z,100889.94
2022-12-28T03:18:58.146Z,100881.00
2022-12-28T03:21:45.206Z,100870.44
2022-12-28T03:24:34.964Z,100863.34
2022-12-28T03:27:21.853Z,100859.88
2022-12-28T03:30:11.495Z,100841.19
2022-12-28T03:32:39.358Z,100836.72
2022-12-28T03:35:09.130Z,100845.66
2022-12-28T03:37:42.486Z,100825.34
2022-12-28T03:40:22.128Z,100817.25
2022-12-28T03:43:09.355Z,100818.91
2022-12-28T03:45:46.612Z,100797.94
2022-12-28T03:48:16.645Z,100784.72
2022-12-28T03:50:49.171Z,100782.06
2022-12-28T03:53:18.015Z,100784.72
2022-12-28T03:55:45.639Z,100779.44
2022-12-28T03:58:13.205Z,100788.38
2022-12-28T04:00:40.748Z,100786.53
2022-12-28T04:03:08.333Z,100734.19
2022-12-28T04:05:36.065Z,100756.28
2022-12-28T04:08:05.344Z,100752.69
2022-12-28T04:10:32.918Z,100755.16
2022-12-28T04:13:00.528Z,100730.72
2022-12-28T04:15:28.094Z,100716.53
2022-12-28T04:17:55.636Z,100725.44
2022-12-28T04:20:23.164Z,100721.13
2022-12-28T04:22:50.768Z,100716.53
2022-12-28T04:25:19.995Z,100697.03
2022-12-28T04:27:47.590Z,100692.75
2022-12-28T04:30:15.137Z,100700.81
2022-12-28T04:32:42.720Z,100699.19
2022-12-28T04:35:10.633Z,100696.56
2022-12-28T04:37:38.478Z,100685.97
2022-12-28T04:40:07.187Z,100682.34
2022-12-28T04:42:36.127Z,100676.41
2022-12-28T04:45:03.894Z,100679.03
2022-12-28T04:47:31.456Z,100658.75
2022-12-28T04:49:58.995Z,100663.00
2022-12-28T04:52:26.583Z,100654.44
2022-12-28T04:54:54.119Z,100640.25
2022-12-28T04:57:21.725Z,100656.25
2022-12-28T04:59:51.005Z,100651.78
2022-12-28T05:02:18.677Z,100637.94
2022-12-28T05:04:46.379Z,100642.38
2022-12-28T05:07:13.998Z,100643.22
2022-12-28T05:09:41.526Z,100648.50
2022-12-28T05:12:09.175Z,100637.94
2022-12-28T05:14:37.284Z,100636.13
2022-12-28T05:17:06.820Z,100629.00
2022-12-28T05:19:34.419Z,100632.31
2022-12-28T05:22:02.052Z,100630.66
2022-12-28T05:24:29.867Z,100620.94
2022-12-28T05:26:57.871Z,100620.75
2022-12-28T05:29:25.559Z,100632.31
2022-12-28T05:31:53.205Z,100614.50
2022-12-28T05:34:22.163Z,100588.41
2022-12-28T05:36:49.730Z,100609.38
2022-12-28T05:39:17.323Z,100600.31
2022-12-28T05:41:44.908Z,100583.31
2022-12-28T05:44:12.466Z,100590.25
2022-12-28T05:46:40.285Z,100588.25
2022-12-28T05:49:09.313Z,100600.31
2022-12-28T05:51:39.966Z,100583.47
2022-12-28T05:54:07.900Z,100579.03
2022-12-28T05:56:36.383Z,100557.53
2022-12-28T05:59:06.830Z,100564.66
2022-12-28T06:01:37.352Z,100556.06
2022-12-28T06:04:07.098Z,100555.91
2022-12-28T06:06:36.073Z,100550.94
2022-12-28T06:09:05.603Z,100545.53
2022-12-28T06:11:33.580Z,100541.88
2022-12-28T06:14:03.549Z,100543.34
2022-12-28T06:16:32.772Z,100547.16
2022-12-28T06:19:04.114Z,100549.31
2022-12-28T06:21:34.067Z,100545.16
2022-12-28T06:24:02.589Z,100540.56
2022-12-28T06:26:33.953Z,100541.88
2022-12-28T06:29:02.694Z,100550.81
2022-12-28T06:31:32.674Z,100553.91
2022-12-28T06:34:01.609Z,100529.97
2022-12-28T06:36:31.188Z,100527.97
2022-12-28T06:39:00.564Z,100525.19
2022-12-28T06:41:29.317Z,100539.72
2022-12-28T06:43:58.901Z,100528.31
2022-12-28T06:46:28.405Z,100527.31
2022-12-28T06:48:56.559Z,100515.09
2022-12-28T06:51:26.503Z,100501.38
2022-12-28T06:53:55.412Z,100515.25
2022-12-28T06:56:24.816Z,100499.22
2022-12-28T06:59:00.328Z,100490.28
2022-12-28T07:01:33.758Z,100471.28
2022-12-28T07:04:02.654Z,100478.38
2022-12-28T07:06:31.730Z,100499.38
2022-12-28T07:09:00.703Z,100503.66
2022-12-28T07:11:29.249Z,100506.16
2022-12-28T07:13:57.183Z,100493.56
2022-12-28T07:18:58.664Z,100473.75
2022-12-28T07:21:27.723Z,100482.97
2022-12-28T07:23:56.648Z,100479.97
2022-12-28T07:26:25.743Z,100485.75
2022-12-28T07:28:55.109Z,100484.09
2022-12-28T07:31:24.443Z,100482.13
2022-12-28T07:33:55.704Z,100488.72
2022-12-28T07:36:26.298Z,100484.25
2022-12-28T07:38:54.025Z,100496.16
2022-12-28T07:41:23.740Z,100490.50
2022-12-28T07:43:52.091Z,100485.88
2022-12-28T07:46:21.731Z,100492.28
2022-12-28T07:48:50.067Z,100483.84
2022-12-28T07:51:19.992Z,100485.50
2022-12-28T07:53:50.541Z,100470.94
2022-12-28T07:56:19.870Z,100457.72
2022-12-28T08:01:18.350Z,100477.22
2022-12-28T08:03:46.471Z,100464.13
2022-12-28T08:06:15.975Z,100464.81
2022-12-28T08:08:45.414Z,100465.25
2022-12-28T08:11:16.920Z,100474.88
2022-12-28T08:13:46.752Z,100469.22
2022-12-28T08:16:18.287Z,100467.41
2022-12-28T08:18:46.587Z,100475.63
2022-12-28T08:21:16.900Z,100470.34
2022-12-28T08:23:45.076Z,100465.53
2022-12-28T08:26:16.918Z,100453.59
2022-12-28T08:28:46.598Z,100459.53
2022-12-28T08:31:16.277Z,100454.88
2022-12-28T08:33:44.369Z,100456.03
2022-12-28T08:36:12.138Z,100453.84
2022-12-28T08:38:40.954Z,100451.03
2022-12-28T08:41:12.204Z,100453.97
2022-12-28T08:43:41.498Z,100446.50
2022-12-28T08:46:12.758Z,100452.63
2022-12-28T08:48:41.090Z,100445.94
2022-12-28T08:51:11.491Z,100450.91
2022-12-28T08:53:39.395Z,100470.94
2022-12-28T08:56:10.368Z,100471.56
2022-12-28T08:58:38.509Z,100469.88
2022-12-28T09:01:12.556Z,100461.56
2022-12-28T09:03:43.172Z,100466.81
2022-12-28T09:06:12.836Z,100474.66
2022-12-28T09:08:42.590Z,100465.53
2022-12-28T09:11:13.462Z,100470.13
2022-12-28T09:13:41.623Z,100463.00
2022-12-28T09:16:12.685Z,100467.94
2022-12-28T09:18:41.996Z,100477.72
2022-12-28T09:21:13.370Z,100478.19
2022-12-28T09:23:41.961Z,100488.06
2022-12-28T09:26:10.811Z,100490.09
2022-12-28T09:28:38.468Z,100495.69
2022-12-28T09:31:07.164Z,100484.44
2022-12-28T09:36:44.493Z,100490.47
2022-12-28T09:39:13.753Z,100489.28
2022-12-28T09:41:47.693Z,100494.25
2022-12-28T09:44:51.315Z,100493.50
2022-12-28T09:47:26.330Z,100494.97
2022-12-28T09:50:06.144Z,100492.44
2022-12-28T09:52:36.486Z,100499.84
2022-12-28T09:55:13.359Z,100487.22
2022-12-28T09:57:45.755Z,100496.19
2022-12-28T10:00:18.608Z,100493.53
2022-12-28T10:02:50.329Z,100488.13
2022-12-28T10:05:21.291Z,100483.28
2022-12-28T10:07:49.231Z,100497.75
2022-12-28T10:10:19.174Z,100493.06
2022-12-28T10:12:48.427Z,100489.59
2022-12-28T10:15:16.836Z,100478.72
2022-12-28T10:17:45.871Z,100494.28
2022-12-28T10:20:19.984Z,100496.03
2022-12-28T10:22:51.893Z,100491.72
2022-12-28T10:25:24.000Z,100483.75
2022-12-28T10:27:51.717Z,100485.56
2022-12-28T10:30:23.979Z,100481.28
2022-12-28T10:33:01.366Z,100491.91
2022-12-28T10:35:43.489Z,100492.53
2022-12-28T10:38:22.103Z,100490.53
2022-12-28T10:40:57.772Z,100497.13
2022-12-28T10:43:29.754Z,100491.44
2022-12-28T10:45:59.226Z,100495.66
2022-12-28T10:48:30.455Z,100485.75
2022-12-28T10:51:02.965Z,100482.09
2022-12-28T10:53:32.818Z,100477.22
2022-12-28T10:56:07.022Z,100471.56
2022-12-28T10:58:35.891Z,100479.59
2022-12-28T11:03:22.107Z,100470.44
2022-12-28T11:04:05.673Z,100467.78
2022-12-28T11:06:36.767Z,100474.00
2022-12-28T11:09:16.984Z,100481.78
2022-12-28T11:11:46.347Z,100484.25
2022-12-28T11:14:25.233Z,100483.25
2022-12-28T11:16:53.351Z,100482.44
2022-12-28T11:19:21.754Z,100486.53
2022-12-28T11:21:51.409Z,100489.81
2022-12-28T11:24:20.207Z,100487.16
2022-12-28T11:26:50.722Z,100487.38
2022-12-28T11:29:20.415Z,100499.91
2022-12-28T11:31:51.981Z,100491.94
2022-12-28T11:34:24.855Z,100489.72
2022-12-28T11:36:53.994Z,100494.59
2022-12-28T11:39:34.036Z,100492.66
2022-12-28T11:42:37.209Z,100481.38
2022-12-28T11:44:53.106Z,100488.59
2022-12-28T11:47:33.160Z,100480.09
2022-12-28T11:50:34.267Z,100482.56
2022-12-28T11:53:09.066Z,100476.34
2022-12-28T11:55:51.212Z,100469.94
2022-12-28T11:58:44.871Z,100468.34
2022-12-28T12:01:34.867Z,100475.13
2022-12-28T12:04:21.283Z,100481.13
2022-12-28T12:07:08.947Z,100471.94
2022-12-28T12:09:44.974Z,100467.47
2022-12-28T12:12:34.598Z,100469.75
2022-12-28T12:15:10.476Z,100468.53
2022-12-28T12:17:44.046Z,100468.59
2022-12-28T12:20:23.740Z,100466.91
2022-12-28T12:22:57.288Z,100464.50
2022-12-28T12:25:28.907Z,100475.88
2022-12-28T12:27:59.138Z,100462.22
2022-12-28T12:30:28.252Z,100465.88
2022-12-28T12:32:59.368Z,100455.91
2022-12-28T12:35:30.173Z,100464.94
2022-12-28T12:38:04.168Z,100459.03
2022-12-28T12:40:54.700Z,100466.19
2022-12-28T12:43:32.853Z,100463.34
2022-12-28T12:46:12.469Z,100461.31
2022-12-28T12:49:11.606Z,100461.31
2022-12-28T12:51:47.314Z,100464.34
2022-12-28T12:54:29.551Z,100460.06
2022-12-28T12:57:01.500Z,100457.59
2022-12-28T12:59:44.527Z,100456.75
2022-12-28T13:02:42.615Z,100462.06
2022-12-28T13:05:17.832Z,100451.19
2022-12-28T13:07:47.058Z,100461.84
2022-12-28T13:10:19.490Z,100461.00
2022-12-28T13:12:47.142Z,100456.69
2022-12-28T13:15:19.151Z,100462.44
2022-12-28T13:18:42.906Z,100452.41
2022-12-28T13:20:57.215Z,100451.00
2022-12-28T13:23:27.399Z,100446.50
2022-12-28T13:25:57.204Z,100442.03
2022-12-28T13:28:29.953Z,100444.13
2022-12-28T13:31:06.755Z,100445.34
2022-12-28T13:33:34.620Z,100443.34
2022-12-28T13:36:18.305Z,100430.84
2022-12-28T13:38:47.341Z,100446.19
2022-12-28T13:41:24.799Z,100445.56
2022-12-28T13:44:29.578Z,100441.47
2022-12-28T13:47:02.619Z,100445.06
2022-12-28T13:49:35.262Z,100453.41
2022-12-28T13:52:07.185Z,100447.25
2022-12-28T13:54:37.472Z,100448.69
2022-12-28T13:57:44.752Z,100437.41
2022-12-28T13:59:57.307Z,100436.41
2022-12-28T14:02:27.434Z,100430.47
2022-12-28T14:04:56.020Z,100438.22
2022-12-28T14:07:28.637Z,100433.88
2022-12-28T14:09:58.441Z,100423.63
2022-12-28T14:12:26.615Z,100427.91
2022-12-28T14:14:54.846Z,100433.59
2022-12-28T14:17:23.778Z,100434.63
2022-12-28T14:19:53.283Z,100436.63
2022-12-28T14:22:30.653Z,100433.34
2022-12-28T14:25:05.714Z,100429.88
2022-12-28T14:27:36.835Z,100427.22
2022-12-28T14:30:06.653Z,100427.59
2022-12-28T14:32:42.319Z,100429.63
2022-12-28T14:35:18.721Z,100421.00
2022-12-28T14:37:51.045Z,100416.06
2022-12-28T14:40:27.551Z,100413.97
2022-12-28T14:42:56.403Z,100411.50
2022-12-28T14:48:34.682Z,100406.75
2022-12-28T14:51:03.805Z,100407.13
2022-12-28T14:53:32.121Z,100404.03
2022-12-28T14:56:07.966Z,100396.06
2022-12-28T14:58:50.490Z,100396.44
2022-12-28T15:01:20.817Z,100389.03
2022-12-28T15:03:50.944Z,100390.03
2022-12-28T15:06:19.906Z,100398.00
2022-12-28T15:08:49.078Z,100388.22
2022-12-28T15:11:18.337Z,100385.75
2022-12-28T15:13:46.139Z,100379.41
2022-12-28T15:16:14.672Z,100375.16
2022-12-28T15:18:44.983Z,100372.28
2022-12-28T15:21:13.714Z,100379.25
2022-12-28T15:23:41.630Z,100368.03
2022-12-28T15:26:10.292Z,100356.59
2022-12-28T15:28:39.818Z,100364.00
2022-12-28T15:31:07.792Z,100357.69
2022-12-28T15:33:36.055Z,100357.28
2022-12-28T15:36:04.994Z,100358.78
2022-12-28T15:38:33.432Z,100350.59
2022-12-28T15:41:00.981Z,100351.22
2022-12-28T15:43:28.701Z,100361.03
2022-12-28T15:45:58.968Z,100348.38
2022-12-28T15:48:31.264Z,100354.53
2022-12-28T15:50:58.831Z,100347.19
2022-12-28T15:53:26.371Z,100342.69
2022-12-28T15:56:00.378Z,100337.38
2022-12-28T15:58:28.283Z,100343.53
2022-12-28T16:00:57.300Z,100336.38
2022-12-28T16:03:25.061Z,100331.84
2022-12-28T16:05:52.658Z,100331.84
2022-12-28T16:08:20.319Z,100332.91
2022-12-28T16:10:47.909Z,100319.63
2022-12-28T16:13:15.511Z,100321.88
2022-12-28T16:15:43.074Z,100313.25
2022-12-28T16:18:12.523Z,100313.91
2022-12-28T16:20:40.278Z,100310.44
2022-12-28T16:23:07.855Z,100304.28
2022-12-28T16:25:35.394Z,100301.63
2022-12-28T16:28:03.007Z,100302.47
2022-12-28T16:30:30.605Z,100298.97
2022-12-28T16:32:58.167Z,100293.50
2022-12-28T16:35:27.071Z,100294.50
2022-12-28T16:37:54.613Z,100288.56
2022-12-28T16:40:22.176Z,100300.81
2022-12-28T16:42:49.739Z,100303.03
2022-12-28T16:45:17.501Z,100278.31
2022-12-28T16:47:45.331Z,100300.56
2022-12-28T16:50:13.071Z,100288.69
2022-12-28T16:52:42.001Z,100285.03
2022-12-28T16:55:09.788Z,100280.09
2022-12-28T16:57:37.408Z,100273.13
2022-12-28T17:00:05.827Z,100273.34
2022-12-28T17:02:33.594Z,100260.88
2022-12-28T17:05:01.329Z,100261.88
2022-12-28T17:07:28.939Z,100262.72
2022-12-28T17:09:57.915Z,100257.78
2022-12-28T17:12:25.485Z,100243.69
2022-12-28T17:14:53.029Z,100250.81
2022-12-28T17:17:20.626Z,100244.50
2022-12-28T17:19:48.223Z,100229.97
2022-12-28T17:22:15.925Z,100231.63
2022-12-28T17:24:43.811Z,100224.03
2022-12-28T17:27:18.660Z,100231.00
2022-12-28T17:29:46.786Z,100225.03
2022-12-28T17:32:14.364Z,100220.94
2022-12-28T17:34:42.005Z,100228.06
2022-12-28T17:37:09.707Z,100230.94
2022-12-28T17:39:40.602Z,100222.97
2022-12-28T17:42:09.158Z,100223.16
2022-12-28T17:44:38.479Z,100216.84
2022-12-28T17:47:06.248Z,100211.09
2022-12-28T17:49:33.804Z,100208.44
2022-12-28T17:52:01.342Z,100206.59
2022-12-28T17:54:29.015Z,100198.00
2022-12-28T17:56:56.643Z,100201.84
2022-12-28T17:59:24.652Z,100192.66
2022-12-28T18:01:54.058Z,100189.16
2022-12-28T18:04:21.838Z,100177.72
2022-12-28T18:06:49.390Z,100175.44
2022-12-28T18:09:18.968Z,100167.50
2022-12-28T18:11:50.048Z,100171.16
2022-12-28T18:14:17.667Z,100170.34
2022-12-28T18:16:45.313Z,100159.28
2022-12-28T18:19:14.465Z,100163.38
2022-12-28T18:21:42.197Z,100165.22
2022-12-28T18:24:13.635Z,100152.94
2022-12-28T18:26:41.336Z,100156.03
2022-12-28T18:29:08.913Z,100160.91
2022-12-28T18:31:36.474Z,100158.09
2022-12-28T18:34:04.864Z,100160.91
2022-12-28T18:36:33.820Z,100165.22
2022-12-28T18:39:01.456Z,100154.59
2022-12-28T18:41:33.730Z,100146.84
2022-12-28T18:44:03.262Z,100152.34
2022-12-28T18:46:30.884Z,100139.69
2022-12-28T18:49:00.494Z,100143.97
2022-12-28T18:51:28.439Z,100128.25
2022-12-28T18:53:57.416Z,100120.91
2022-12-28T18:56:24.975Z,100128.88
2022-12-28T18:58:55.055Z,100128.06
2022-12-28T19:02:04.804Z,100110.31
2022-12-28T19:04:13.156Z,100118.06
2022-12-28T19:06:41.531Z,100101.34
2022-12-28T19:09:11.535Z,100117.66
2022-12-28T19:11:40.361Z,100113.19
2022-12-28T19:14:11.521Z,100100.13
2022-12-28T19:16:39.635Z,100094.81
2022-12-28T19:19:07.363Z,100097.47
2022-12-28T19:21:36.280Z,100090.13
2022-12-28T19:24:06.816Z,100083.59
2022-12-28T19:26:36.577Z,100087.09
2022-12-28T19:29:04.804Z,100092.22
2022-12-28T19:31:32.906Z,100084.44
2022-12-28T19:34:00.875Z,100076.47
2022-12-28T19:36:28.636Z,100076.06
2022-12-28T19:38:56.413Z,100084.03
2022-12-28T19:41:24.838Z,100077.50
2022-12-28T19:43:53.942Z,100070.59
2022-12-28T19:46:23.523Z,100058.09
2022-12-28T19:48:53.901Z,100053.63
2022-12-28T19:51:30.061Z,100049.13
2022-12-28T19:53:58.614Z,100053.63
2022-12-28T19:56:26.204Z,100044.84
2022-12-28T19:59:01.154Z,100046.69
2022-12-28T20:01:33.171Z,100045.66
2022-12-28T20:04:01.059Z,100044.03
2022-12-28T20:06:30.422Z,100038.09
2022-12-28T20:08:59.828Z,100028.28
2022-12-28T20:11:28.725Z,100024.81
2022-12-28T20:14:00.463Z,100020.31
2022-12-28T20:16:32.718Z,100018.88
2022-12-28T20:19:01.642Z,100015.22
2022-12-28T20:21:29.321Z,100012.56
2022-12-28T20:23:57.325Z,100008.88
2022-12-28T20:26:27.425Z,100011.94
2022-12-28T20:28:56.335Z,100007.84
2022-12-28T20:31:26.285Z,100016.22
2022-12-28T20:33:54.306Z,100005.78
2022-12-28T20:36:23.802Z,100006.63
2022-12-28T20:38:52.117Z,99992.13
2022-12-28T20:41:38.679Z,100000.69
2022-12-28T20:44:08.801Z,99992.91
2022-12-28T20:46:38.246Z,99984.16
2022-12-28T20:49:06.575Z,99977.38
2022-12-28T20:51:34.924Z,99970.63
2022-12-28T20:54:02.484Z,99973.28
2022-12-28T20:56:30.129Z,99963.91
2022-12-28T20:58:57.816Z,99957.53
2022-12-28T21:01:25.873Z,99963.69
2022-12-28T21:03:54.970Z,99959.38
2022-12-28T21:06:22.847Z,99950.59
2022-12-28T21:08:50.442Z,99947.94
2022-12-28T21:11:18.031Z,99935.06
2022-12-28T21:13:45.643Z,99934.06
2022-12-28T21:16:14.271Z,99921.38
2022-12-28T21:18:42.305Z,99930.56
2022-12-28T21:21:16.340Z,99920.56
2022-12-28T21:23:44.053Z,99911.78
2022-12-28T21:26:14.349Z,99909.94
2022-12-28T21:28:42.395Z,99899.09
2022-12-28T21:31:10.578Z,99902.78
2022-12-28T21:33:39.350Z,99898.31
2022-12-28T21:36:09.584Z,99894.00
2022-12-28T21:38:40.795Z,99881.75
2022-12-28T21:41:10.622Z,99876.81
2022-12-28T21:43:38.471Z,99883.56
2022-12-28T21:46:09.131Z,99884.22
2022-12-28T21:48:38.240Z,99869.31
2022-12-28T21:51:27.883Z,99880.91
2022-12-28T21:53:57.172Z,99874.59
2022-12-28T21:56:25.018Z,99865.63
2022-12-28T21:58:52.656Z,99862.34
2022-12-28T22:01:37.804Z,99857.25
2022-12-28T22:04:23.505Z,99854.59
2022-12-28T22:06:51.070Z,99857.03
2022-12-28T22:09:37.598Z,99841.34
2022-12-28T22:12:23.232Z,99847.66
2022-12-28T22:15:10.831Z,99835.03
2022-12-28T22:17:38.491Z,99829.91
2022-12-28T22:20:07.056Z,99830.50
2022-12-28T22:22:34.741Z,99823.78
2022-12-28T22:25:03.758Z,99820.13
2022-12-28T22:27:31.372Z,99820.72
2022-12-28T22:29:59.048Z,99809.94
2022-12-28T22:32:26.876Z,99817.88
2022-12-28T22:34:54.458Z,99807.28
2022-12-28T22:37:22.056Z,99807.06
2022-12-28T22:39:49.633Z,99803.59
2022-12-28T22:42:18.675Z,99812.19
2022-12-28T22:44:46.261Z,99799.75
2022-12-28T22:47:13.887Z,99792.97
2022-12-28T22:49:41.476Z,99785.00
2022-12-28T22:52:09.096Z,99789.31
2022-12-28T22:54:36.741Z,99793.59
2022-12-28T22:57:06.966Z,99786.25
2022-12-28T22:59:36.102Z,99777.69
2022-12-28T23:02:03.846Z,99769.91
2022-12-28T23:04:31.708Z,99769.09
2022-12-28T23:07:03.514Z,99769.72
2022-12-28T23:09:31.954Z,99758.47
2022-12-28T23:11:59.573Z,99768.09
2022-12-28T23:14:45.325Z,99776.03
2022-12-28T23:17:16.355Z,99783.81
2022-12-28T23:20:01.784Z,99767.69
2022-12-28T23:22:49.295Z,99761.56
2022-12-28T23:25:36.733Z,99764.41
2022-12-28T23:28:06.557Z,99757.28
2022-12-28T23:30:34.892Z,99763.38
2022-12-28T23:33:04.109Z,99766.84
2022-12-28T23:35:31.801Z,99758.72
2022-12-28T23:37:59.465Z,99749.72
2022-12-28T23:40:27.546Z,99755.03
2022-12-28T23:42:55.452Z,99746.66
2022-12-28T23:45:23.370Z,99748.91
2022-12-28T23:47:53.652Z,99751.38
2022-12-28T23:50:23.205Z,99729.16
2022-12-28T23:52:50.792Z,99737.72
2022-12-28T23:55:18.547Z,99732.00
2022-12-28T23:57:46.227Z,99737.91
